Nationale Nord-Est Plateau de Malzéville (54) - K

Date : 03/06/2012
Distance : 4,100 km

Place Nom Licence Catégorie Club Temps min/km CN à J-60 Points Différence Nouveau CN
1 HABERKORN Chloé 10396 D16 2105BO 0:29:16 7'08 5746 6484 +738 6560
2 DROIN Solène 17925 D16 4201RA 0:34:22 8'22 4966 5522 +556 5692
3 GIRARD Lucille 19689 D16 3705CE 0:36:43 8'57 5105 5168 +63 5237
4 ROULLEAUX Julie 11559 D16 9105IF 0:37:28 9'08 5587 5065 -522 5711
5 BODY Mathilde 10184 D16 7305RA 0:37:50 9'13 5501 5016 -485 5805
6 LUTHRINGER Coline 10091 D16 8809LO 0:42:33 10'22 4397 4460 +63 4649
7 DELENNE Camilla 13800 D16 1307PR 0:43:48 10'40 3997 4333 +336 4390
8 BORNARD Julie 9402 D16 7305RA 0:43:53 10'42 4578 4324 -254 5070
9 SEMBACH Lauriane 19221 D16 6806AL 0:44:50 10'56 3523 4233 +710 3932
10 ELIAS Pauline 16137 D16 1307PR 0:45:49 11'10 3684 4142 +458 4008
11 BASSET Fiona 23384 D16 6911RA 0:46:11 11'15 4239 4109 -130 4632
12 DEFIX Julia 19894 D16 4203RA 0:46:59 11'27 3563 4039 +476 3869
13 KORCHAK Nathalie 13638 D16 6806AL 0:47:01 11'28 4321 4036 -285 4380
14 RIVOLLIER Isaline 22451 D16 4201RA 0:47:10 11'30 3898 4023 +125 4507
15 CHARDOT Marion 22315 D16 7807IF 0:50:48 12'23 4032 3736 -296 4233
16 PETER-JAN Lucile 19276 D16 3705CE 0:52:45 12'51 4983 3597 -1386 4932
17 DUQUENNE Audrey 23885 D16 5907NO 0:53:29 13'02 3905 3548 -357 3988
18 BEGUINOT Claire 13961 D16 5702LO 0:58:40 14'18 2214 3235 +1021 3217
19 BESTEL Sandra 10758 D16 9105IF 1:00:20 14'42 3979 3145 -834 4077
20 LE COQ Cléa 25267 D16 7807IF 1:02:45 15'18 2494 3024 +530 2704
21 BERCHE Léa 24420 D16 5907NO 1:04:01 15'36 3115 2964 -151 3153
22 MINET Clémence 23609 D18 6208NO 1:04:24 15'42 3024 2947 -77 2949
23 CHAZAL Marina 25715 D16 2105BO 1:05:42 16'01 2888 2651
24 DELAPORTE Léa 20067 D16 5116CA 1:07:40 16'30 3190 2804 -386 3142
25 BULLIER Alisson 23427 D16 0207PI 1:11:05 17'20 2918 2670 -248 2934
26 CREUSAT Eva 23806 D16 8809LO 1:16:16 18'36 3394 2488 -906 3445
27 MASSIN Margot 22860 D16 5907NO 1:17:22 18'52 3253 2453 -800 3515
28 TEGNY Laurine 23659 D16 6205NO 1:18:00 19'01 3145 2433 -712 3080
29 SOUAN Cécile 26423 D16 7707IF 1:22:13 20'03 2308 2216
30 LECUYER Manon 22549 D16 5907NO 1:22:18 20'04 2800 2306 -494 2644
31 LAURENT Manon 25577 D16 5907NO 1:28:46 21'39 2077 2138 +61 2165
32 HENRY Océane 17575 D16 7004FC 1:39:04 24'09 2179 1916 -263 2082
DASILVA Auriane 12758 D16 7707IF pm None 2291 0 2557